Time,TemperatureF,DewpointF,PressureIn,WindDirection,WindDirectionDegrees,WindSpeedMPH,WindSpeedGustMPH,Humidity,HourlyPrecipIn,Conditions,Clouds,dailyrainin,SoftwareType,DateUTC
2015-05-27 00:02:00,65.2,64.9,30.17,South,181,0.0,0.0,99,0.00,,,0.04,Wunderground v.1.15,2015-05-27 05:02:00,
2015-05-27 00:08:00,65.0,64.7,30.17,South,181,0.0,0.0,99,0.00,,,0.00,Wunderground v.1.15,2015-05-27 05:08:00,
2015-05-27 00:14:00,64.9,64.9,30.17,South,181,0.0,0.0,100,0.00,,,0.00,Wunderground v.1.15,2015-05-27 05:14:00,
2015-05-27 00:20:00,64.7,64.7,30.17,South,181,0.0,0.0,100,0.00,,,0.00,Wunderground v.1.15,2015-05-27 05:20:00,
2015-05-27 00:26:00,64.7,64.7,30.17,South,181,0.0,0.0,100,0.00,,,0.00,Wunderground v.1.15,2015-05-27 05:26:00,
2015-05-27 00:32:00,64.5,64.5,30.17,South,181,0.0,0.0,100,0.00,,,0.00,Wunderground v.1.15,2015-05-27 05:32:00,
2015-05-27 00:38:00,64.3,64.3,30.16,South,181,0.0,0.0,100,0.00,,,0.00,Wunderground v.1.15,2015-05-27 05:38:00,
2015-05-27 00:43:00,64.2,63.9,30.17,South,181,0.0,0.0,99,0.00,,,0.00,Wunderground v.1.15,2015-05-27 05:43:00,
2015-05-27 00:50:00,64.0,64.0,30.17,South,181,0.0,0.0,100,0.00,,,0.00,Wunderground v.1.15,2015-05-27 05:50:00,
2015-05-27 00:55:00,63.8,63.5,30.17,South,181,0.0,0.0,99,0.00,,,0.00,Wunderground v.1.15,2015-05-27 05:55:00,
2015-05-27 01:01:00,63.8,63.8,30.17,South,181,0.0,0.0,100,0.00,,,0.00,Wunderground v.1.15,2015-05-27 06:01:00,
2015-05-27 01:08:00,63.7,63.7,30.16,South,181,0.0,0.0,100,0.00,,,0.00,Wunderground v.1.15,2015-05-27 06:08:00,
2015-05-27 01:20:00,63.6,63.6,30.16,South,181,0.0,0.0,100,0.00,,,0.00,Wunderground v.1.15,2015-05-27 06:20:00,
2015-05-27 01:26:00,63.6,63.6,30.16,South,181,0.0,0.0,100,0.00,,,0.00,Wunderground v.1.15,2015-05-27 06:26:00,
2015-05-27 01:32:00,63.6,63.6,30.16,South,181,0.0,0.0,100,0.00,,,0.00,Wunderground v.1.15,2015-05-27 06:32:00,
2015-05-27 01:38:00,63.5,63.5,30.16,South,181,0.0,0.0,100,0.00,,,0.00,Wunderground v.1.15,2015-05-27 06:38:00,
2015-05-27 01:44:00,63.4,63.4,30.16,South,181,0.0,0.0,100,0.00,,,0.00,Wunderground v.1.15,2015-05-27 06:44:00,
2015-05-27 01:50:00,63.3,63.3,30.16,South,181,0.0,0.0,100,0.00,,,0.00,Wunderground v.1.15,2015-05-27 06:50:00,
2015-05-27 01:56:00,63.1,63.1,30.16,South,182,0.0,0.0,100,0.00,,,0.00,Wunderground v.1.15,2015-05-27 06:56:00,
2015-05-27 02:02:00,62.9,62.9,30.16,South,181,0.0,0.0,100,0.00,,,0.00,Wunderground v.1.15,2015-05-27 07:02:00,
2015-05-27 02:08:00,62.8,62.8,30.16,South,181,0.0,0.0,100,0.00,,,0.00,Wunderground v.1.15,2015-05-27 07:08:00,
2015-05-27 02:14:00,62.7,62.7,30.16,South,181,0.0,0.0,100,0.00,,,0.00,Wunderground v.1.15,2015-05-27 07:14:00,
2015-05-27 02:20:00,62.7,62.7,30.15,South,181,0.0,0.0,100,0.00,,,0.00,Wunderground v.1.15,2015-05-27 07:20:00,
2015-05-27 02:26:00,62.7,62.7,30.15,South,181,0.0,0.0,100,0.00,,,0.00,Wunderground v.1.15,2015-05-27 07:26:00,
2015-05-27 02:32:00,62.6,62.6,30.14,South,181,0.0,0.0,100,0.00,,,0.00,Wunderground v.1.15,2015-05-27 07:32:00,
2015-05-27 02:38:00,62.5,62.5,30.14,South,181,0.0,0.0,100,0.00,,,0.00,Wunderground v.1.15,2015-05-27 07:38:00,
2015-05-27 02:44:00,62.4,62.4,30.15,South,181,0.0,0.0,100,0.00,,,0.00,Wunderground v.1.15,2015-05-27 07:44:00,
2015-05-27 02:50:00,62.3,62.3,30.15,South,181,0.0,0.0,100,0.00,,,0.00,Wunderground v.1.15,2015-05-27 07:50:00,
2015-05-27 02:56:00,62.3,62.3,30.15,South,181,0.0,0.0,100,0.00,,,0.00,Wunderground v.1.15,2015-05-27 07:56:00,
2015-05-27 03:02:00,62.4,62.4,30.16,South,181,0.0,0.0,100,0.00,,,0.00,Wunderground v.1.15,2015-05-27 08:02:00,
2015-05-27 03:08:00,62.5,62.5,30.15,South,182,0.0,0.0,100,0.00,,,0.00,Wunderground v.1.15,2015-05-27 08:08:00,
2015-05-27 03:14:00,62.6,62.6,30.15,South,181,0.0,0.0,100,0.00,,,0.00,Wunderground v.1.15,2015-05-27 08:14:00,
2015-05-27 03:20:00,62.7,62.7,30.15,South,181,0.0,0.0,100,0.00,,,0.00,Wunderground v.1.15,2015-05-27 08:20:00,
2015-05-27 03:26:00,62.9,62.9,30.15,South,181,0.0,0.0,100,0.00,,,0.00,Wunderground v.1.15,2015-05-27 08:26:00,
2015-05-27 03:32:00,62.9,62.9,30.15,South,181,0.0,0.0,100,0.00,,,0.00,Wunderground v.1.15,2015-05-27 08:32:00,
2015-05-27 03:38:00,63.0,63.0,30.16,South,181,0.0,0.0,100,0.00,,,0.00,Wunderground v.1.15,2015-05-27 08:38:00,
2015-05-27 03:44:00,63.1,63.1,30.16,South,181,0.0,0.0,100,0.00,,,0.00,Wunderground v.1.15,2015-05-27 08:44:00,
2015-05-27 03:50:00,63.1,63.1,30.17,South,181,0.0,0.0,100,0.00,,,0.00,Wunderground v.1.15,2015-05-27 08:50:00,
2015-05-27 03:56:00,63.2,63.2,30.17,South,181,0.0,0.0,100,0.00,,,0.00,Wunderground v.1.15,2015-05-27 08:56:00,
2015-05-27 04:02:00,63.2,63.2,30.18,South,181,0.0,0.0,100,0.00,,,0.00,Wunderground v.1.15,2015-05-27 09:02:00,
2015-05-27 04:08:00,63.3,63.3,30.18,South,181,0.0,0.0,100,0.00,,,0.00,Wunderground v.1.15,2015-05-27 09:08:00,
2015-05-27 04:14:00,63.3,63.3,30.18,South,181,0.0,0.0,100,0.00,,,0.00,Wunderground v.1.15,2015-05-27 09:14:00,
2015-05-27 04:20:00,63.3,63.3,30.18,South,181,0.0,0.0,100,0.00,,,0.00,Wunderground v.1.15,2015-05-27 09:20:00,
2015-05-27 04:26:00,63.4,63.4,30.19,South,182,0.0,0.0,100,0.00,,,0.00,Wunderground v.1.15,2015-05-27 09:26:00,
2015-05-27 04:32:00,63.4,63.4,30.18,South,181,0.0,0.0,100,0.00,,,0.00,Wunderground v.1.15,2015-05-27 09:32:00,
2015-05-27 04:38:00,63.5,63.5,30.18,South,181,0.0,0.0,100,0.00,,,0.00,Wunderground v.1.15,2015-05-27 09:38:00,
2015-05-27 04:44:00,63.5,63.5,30.19,South,181,0.0,0.0,100,0.00,,,0.00,Wunderground v.1.15,2015-05-27 09:44:00,
2015-05-27 04:50:00,63.5,63.5,30.19,South,181,0.0,0.0,100,0.00,,,0.00,Wunderground v.1.15,2015-05-27 09:50:00,
2015-05-27 04:55:00,63.5,63.5,30.19,South,181,0.0,0.0,100,0.00,,,0.00,Wunderground v.1.15,2015-05-27 09:55:00,
2015-05-27 05:02:00,63.5,63.5,30.19,South,181,0.0,0.0,100,0.00,,,0.00,Wunderground v.1.15,2015-05-27 10:02:00,
2015-05-27 05:08:00,63.5,63.5,30.19,South,181,0.0,0.0,100,0.00,,,0.00,Wunderground v.1.15,2015-05-27 10:08:00,
2015-05-27 05:14:00,63.5,63.5,30.19,South,181,0.0,0.0,100,0.00,,,0.00,Wunderground v.1.15,2015-05-27 10:14:00,
2015-05-27 05:20:00,63.6,63.6,30.19,South,181,0.0,0.0,100,0.00,,,0.00,Wunderground v.1.15,2015-05-27 10:20:00,
2015-05-27 05:26:00,63.6,63.6,30.19,South,181,0.0,0.0,100,0.00,,,0.00,Wunderground v.1.15,2015-05-27 10:26:00,
2015-05-27 05:32:00,63.6,63.6,30.19,South,181,0.0,0.0,100,0.00,,,0.00,Wunderground v.1.15,2015-05-27 10:32:00,
2015-05-27 05:37:00,63.6,63.6,30.19,South,181,0.0,0.0,100,0.00,,,0.00,Wunderground v.1.15,2015-05-27 10:37:00,
2015-05-27 05:44:00,63.6,63.6,30.19,South,181,0.0,0.0,100,0.00,,,0.00,Wunderground v.1.15,2015-05-27 10:44:00,
2015-05-27 05:50:00,63.6,63.6,30.19,South,181,0.0,0.0,100,0.00,,,0.00,Wunderground v.1.15,2015-05-27 10:50:00,
2015-05-27 05:56:00,63.6,63.6,30.18,South,181,0.0,0.0,100,0.00,,,0.00,Wunderground v.1.15,2015-05-27 10:56:00,
2015-05-27 06:02:00,63.7,63.7,30.18,South,181,0.0,0.0,100,0.00,,,0.00,Wunderground v.1.15,2015-05-27 11:02:00,
2015-05-27 06:08:00,63.7,63.7,30.19,South,181,0.0,0.0,100,0.00,,,0.00,Wunderground v.1.15,2015-05-27 11:08:00,
2015-05-27 06:14:00,63.7,63.7,30.19,South,181,0.0,0.0,100,0.00,,,0.00,Wunderground v.1.15,2015-05-27 11:14:00,
2015-05-27 06:20:00,63.8,63.8,30.18,South,181,0.0,0.0,100,0.00,,,0.00,Wunderground v.1.15,2015-05-27 11:20:00,
2015-05-27 06:26:00,63.8,63.8,30.19,South,181,0.0,0.0,100,0.00,,,0.00,Wunderground v.1.15,2015-05-27 11:26:00,
2015-05-27 06:32:00,63.9,63.9,30.19,South,181,0.0,0.0,100,0.00,,,0.00,Wunderground v.1.15,2015-05-27 11:32:00,
2015-05-27 06:38:00,64.0,64.0,30.19,South,181,0.0,0.0,100,0.00,,,0.00,Wunderground v.1.15,2015-05-27 11:38:00,
2015-05-27 06:44:00,64.1,64.1,30.20,South,181,0.0,0.0,100,0.00,,,0.00,Wunderground v.1.15,2015-05-27 11:44:00,
2015-05-27 06:50:00,64.1,64.1,30.19,South,181,0.0,0.0,100,0.00,,,0.00,Wunderground v.1.15,2015-05-27 11:50:00,
2015-05-27 06:56:00,64.3,64.3,30.19,South,182,0.0,0.0,100,0.00,,,0.00,Wunderground v.1.15,2015-05-27 11:56:00,
2015-05-27 07:02:00,64.3,64.3,30.19,South,181,0.0,0.0,100,0.00,,,0.00,Wunderground v.1.15,2015-05-27 12:02:00,
2015-05-27 07:07:00,64.4,64.4,30.20,South,181,0.0,0.0,100,0.00,,,0.00,Wunderground v.1.15,2015-05-27 12:07:00,
2015-05-27 07:14:00,64.5,64.5,30.20,South,181,0.0,0.0,100,0.00,,,0.00,Wunderground v.1.15,2015-05-27 12:14:00,
2015-05-27 07:20:00,64.6,64.6,30.20,South,181,0.0,0.0,100,0.00,,,0.00,Wunderground v.1.15,2015-05-27 12:20:00,
2015-05-27 07:26:00,64.8,64.8,30.20,South,182,0.0,0.0,100,0.00,,,0.00,Wunderground v.1.15,2015-05-27 12:26:00,
2015-05-27 07:32:00,64.9,64.9,30.20,South,181,0.0,0.0,100,0.00,,,0.00,Wunderground v.1.15,2015-05-27 12:32:00,
2015-05-27 07:38:00,65.0,65.0,30.21,South,181,0.0,0.0,100,0.00,,,0.00,Wunderground v.1.15,2015-05-27 12:38:00,
2015-05-27 07:44:00,65.1,65.1,30.21,South,181,0.0,0.0,100,0.00,,,0.00,Wunderground v.1.15,2015-05-27 12:44:00,
2015-05-27 07:50:00,65.3,65.3,30.21,South,181,0.0,0.0,100,0.00,,,0.00,Wunderground v.1.15,2015-05-27 12:50:00,
2015-05-27 07:56:00,65.4,65.4,30.22,South,181,0.0,0.0,100,0.00,,,0.00,Wunderground v.1.15,2015-05-27 12:56:00,
2015-05-27 08:02:00,65.5,65.5,30.22,South,181,0.0,0.0,100,0.00,,,0.00,Wunderground v.1.15,2015-05-27 13:02:00,
2015-05-27 08:08:00,65.5,65.5,30.22,South,179,0.0,0.0,100,0.00,,,0.00,Wunderground v.1.15,2015-05-27 13:08:00,
2015-05-27 08:14:00,65.6,65.6,30.23,South,181,0.0,0.0,100,0.00,,,0.00,Wunderground v.1.15,2015-05-27 13:14:00,
2015-05-27 08:20:00,65.8,65.8,30.23,South,180,0.0,0.0,100,0.00,,,0.00,Wunderground v.1.15,2015-05-27 13:20:00,
2015-05-27 08:26:00,66.0,66.0,30.23,SSE,149,0.0,0.0,100,0.00,,,0.00,Wunderground v.1.15,2015-05-27 13:26:00,
2015-05-27 08:32:00,66.3,66.3,30.23,SSE,150,0.0,0.0,100,0.00,,,0.00,Wunderground v.1.15,2015-05-27 13:32:00,
2015-05-27 08:38:00,66.6,66.6,30.23,SSE,150,0.0,0.0,100,0.00,,,0.00,Wunderground v.1.15,2015-05-27 13:38:00,
2015-05-27 08:44:00,66.8,66.8,30.23,ESE,107,0.0,0.0,100,0.00,,,0.00,Wunderground v.1.15,2015-05-27 13:44:00,
2015-05-27 08:50:00,67.3,67.0,30.23,ESE,107,0.0,0.0,99,0.00,,,0.00,Wunderground v.1.15,2015-05-27 13:50:00,
2015-05-27 08:56:00,67.6,66.7,30.22,ESE,107,0.0,0.0,97,0.00,,,0.00,Wunderground v.1.15,2015-05-27 13:56:00,
2015-05-27 09:02:00,67.9,66.4,30.22,ENE,78,0.0,0.0,95,0.00,,,0.00,Wunderground v.1.15,2015-05-27 14:02:00,
2015-05-27 09:08:00,68.2,66.4,30.22,ENE,77,0.0,0.0,94,0.00,,,0.00,Wunderground v.1.15,2015-05-27 14:08:00,
2015-05-27 09:14:00,68.6,66.8,30.22,ENE,78,0.0,0.0,94,0.00,,,0.00,Wunderground v.1.15,2015-05-27 14:14:00,
2015-05-27 09:26:00,69.8,66.7,30.21,ESE,115,0.0,0.0,90,0.00,,,0.00,Wunderground v.1.15,2015-05-27 14:26:00,
2015-05-27 09:32:00,70.3,66.6,30.21,ESE,116,0.0,0.0,88,0.00,,,0.00,Wunderground v.1.15,2015-05-27 14:32:00,
2015-05-27 09:38:00,70.6,66.9,30.22,ESE,115,0.0,0.0,88,0.00,,,0.00,Wunderground v.1.15,2015-05-27 14:38:00,
2015-05-27 09:44:00,70.8,67.1,30.22,ESE,115,0.0,0.0,88,0.00,,,0.00,Wunderground v.1.15,2015-05-27 14:44:00,
2015-05-27 09:50:00,70.8,66.7,30.22,North,4,0.0,0.0,87,0.00,,,0.00,Wunderground v.1.15,2015-05-27 14:50:00,
2015-05-27 09:56:00,70.9,66.5,30.22,ESE,114,0.0,0.0,86,0.00,,,0.00,Wunderground v.1.15,2015-05-27 14:56:00,
2015-05-27 10:02:00,71.2,66.5,30.22,SSE,165,0.0,0.0,85,0.00,,,0.00,Wunderground v.1.15,2015-05-27 15:02:00,
2015-05-27 10:08:00,71.6,66.5,30.23,SE,142,0.0,0.0,84,0.00,,,0.00,Wunderground v.1.15,2015-05-27 15:08:00,
2015-05-27 10:14:00,71.8,66.7,30.23,WSW,257,0.0,0.0,84,0.00,,,0.00,Wunderground v.1.15,2015-05-27 15:14:00,
2015-05-27 10:20:00,71.8,67.0,30.23,WSW,250,0.0,0.0,85,0.00,,,0.00,Wunderground v.1.15,2015-05-27 15:20:00,
2015-05-27 10:26:00,71.9,66.8,30.23,SW,217,0.0,0.0,84,0.00,,,0.00,Wunderground v.1.15,2015-05-27 15:26:00,
2015-05-27 10:32:00,72.4,66.6,30.23,East,89,0.0,0.0,82,0.00,,,0.00,Wunderground v.1.15,2015-05-27 15:32:00,
2015-05-27 10:38:00,72.3,66.8,30.23,East,85,0.0,0.0,83,0.00,,,0.00,Wunderground v.1.15,2015-05-27 15:38:00,
2015-05-27 10:44:00,72.3,66.8,30.24,ENE,78,0.0,0.0,83,0.00,,,0.00,Wunderground v.1.15,2015-05-27 15:44:00,
2015-05-27 10:50:00,72.5,67.4,30.24,SSE,161,0.0,0.0,84,0.00,,,0.00,Wunderground v.1.15,2015-05-27 15:50:00,
2015-05-27 10:56:00,72.8,67.3,30.23,SSE,160,0.0,0.0,83,0.00,,,0.00,Wunderground v.1.15,2015-05-27 15:56:00,
2015-05-27 11:02:00,72.9,67.4,30.24,ENE,77,0.0,0.0,83,0.00,,,0.00,Wunderground v.1.15,2015-05-27 16:02:00,
2015-05-27 11:08:00,72.7,67.2,30.23,ENE,75,0.0,0.0,83,0.00,,,0.00,Wunderground v.1.15,2015-05-27 16:08:00,
2015-05-27 11:14:00,73.0,66.8,30.23,SW,228,0.0,0.0,81,0.00,,,0.00,Wunderground v.1.15,2015-05-27 16:14:00,
2015-05-27 11:20:00,73.5,67.3,30.23,SSW,203,0.0,0.0,81,0.00,,,0.00,Wunderground v.1.15,2015-05-27 16:20:00,
2015-05-27 11:26:00,73.7,65.7,30.23,SE,143,0.0,0.0,76,0.00,,,0.00,Wunderground v.1.15,2015-05-27 16:26:00,
2015-05-27 11:32:00,74.2,67.3,30.23,NE,54,0.0,0.0,79,0.00,,,0.00,Wunderground v.1.15,2015-05-27 16:32:00,
2015-05-27 11:38:00,74.4,67.5,30.23,East,87,0.0,0.0,79,0.00,,,0.00,Wunderground v.1.15,2015-05-27 16:38:00,
2015-05-27 11:44:00,74.6,67.7,30.23,West,262,0.0,0.0,79,0.00,,,0.00,Wunderground v.1.15,2015-05-27 16:44:00,
2015-05-27 11:50:00,75.0,68.8,30.23,SE,127,0.0,0.0,81,0.00,,,0.00,Wunderground v.1.15,2015-05-27 16:50:00,
2015-05-27 11:56:00,75.6,67.1,30.22,SSW,213,0.0,0.0,75,0.00,,,0.00,Wunderground v.1.15,2015-05-27 16:56:00,
2015-05-27 12:02:00,75.8,66.5,30.22,ESE,112,0.0,0.0,73,0.00,,,0.00,Wunderground v.1.15,2015-05-27 17:02:00,
2015-05-27 12:08:00,76.0,66.3,30.22,SE,124,0.0,0.0,72,0.00,,,0.00,Wunderground v.1.15,2015-05-27 17:08:00,
2015-05-27 12:14:00,75.9,67.4,30.22,ESE,105,0.0,0.0,75,0.00,,,0.00,Wunderground v.1.15,2015-05-27 17:14:00,
2015-05-27 12:20:00,75.9,67.4,30.22,SE,141,0.0,0.0,75,0.00,,,0.00,Wunderground v.1.15,2015-05-27 17:20:00,
2015-05-27 12:26:00,75.6,67.1,30.22,SE,136,0.0,0.0,75,0.00,,,0.00,Wunderground v.1.15,2015-05-27 17:26:00,
2015-05-27 12:32:00,75.3,67.2,30.22,SE,136,0.0,0.0,76,0.00,,,0.00,Wunderground v.1.15,2015-05-27 17:32:00,
2015-05-27 12:38:00,75.2,68.6,30.22,SE,138,0.0,0.0,80,0.00,,,0.00,Wunderground v.1.15,2015-05-27 17:38:00,
2015-05-27 12:44:00,75.6,68.3,30.21,South,170,0.0,0.0,78,0.00,,,0.00,Wunderground v.1.15,2015-05-27 17:44:00,
2015-05-27 12:50:00,76.4,67.5,30.21,East,96,0.0,0.0,74,0.00,,,0.00,Wunderground v.1.15,2015-05-27 17:50:00,
2015-05-27 12:56:00,77.1,68.6,30.20,East,93,0.0,0.0,75,0.00,,,0.00,Wunderground v.1.15,2015-05-27 17:56:00,
2015-05-27 13:01:00,77.7,68.0,30.20,ENE,76,0.0,0.0,72,0.00,,,0.00,Wunderground v.1.15,2015-05-27 18:01:00,
2015-05-27 13:08:00,78.0,68.2,30.20,East,79,0.0,0.0,72,0.00,,,0.00,Wunderground v.1.15,2015-05-27 18:08:00,
2015-05-27 13:13:00,78.4,67.8,30.19,SE,124,0.0,0.0,70,0.00,,,0.00,Wunderground v.1.15,2015-05-27 18:13:00,
2015-05-27 13:20:00,78.7,66.4,30.19,SE,124,0.0,0.0,66,0.00,,,0.00,Wunderground v.1.15,2015-05-27 18:20:00,
2015-05-27 13:26:00,78.8,66.0,30.19,East,85,0.0,0.0,65,0.00,,,0.00,Wunderground v.1.15,2015-05-27 18:26:00,
2015-05-27 13:32:00,78.9,64.8,30.18,South,190,0.0,0.0,62,0.00,,,0.00,Wunderground v.1.15,2015-05-27 18:32:00,
2015-05-27 13:38:00,78.9,64.3,30.18,NE,41,0.0,0.0,61,0.00,,,0.00,Wunderground v.1.15,2015-05-27 18:38:00,
2015-05-27 13:50:00,79.6,65.0,30.18,SSE,149,0.0,0.0,61,0.00,,,0.00,Wunderground v.1.15,2015-05-27 18:50:00,
2015-05-27 13:56:00,79.7,65.1,30.19,ESE,103,0.0,0.0,61,0.00,,,0.00,Wunderground v.1.15,2015-05-27 18:56:00,
2015-05-27 14:02:00,79.4,65.7,30.19,NNE,16,0.0,0.0,63,0.00,,,0.00,Wunderground v.1.15,2015-05-27 19:02:00,
2015-05-27 14:08:00,79.1,66.3,30.19,SW,236,0.0,0.0,65,0.00,,,0.00,Wunderground v.1.15,2015-05-27 19:08:00,
2015-05-27 14:14:00,79.2,66.0,30.19,SSE,153,0.0,0.0,64,0.00,,,0.00,Wunderground v.1.15,2015-05-27 19:14:00,
2015-05-27 14:20:00,79.7,64.6,30.19,SE,124,0.0,0.0,60,0.00,,,0.00,Wunderground v.1.15,2015-05-27 19:20:00,
2015-05-27 14:26:00,80.0,68.1,30.19,NE,55,0.0,0.0,67,0.00,,,0.00,Wunderground v.1.15,2015-05-27 19:26:00,
2015-05-27 14:32:00,80.1,66.4,30.19,East,82,0.0,0.0,63,0.00,,,0.00,Wunderground v.1.15,2015-05-27 19:32:00,
2015-05-27 14:38:00,80.3,66.6,30.19,SSW,197,0.0,0.0,63,0.00,,,0.00,Wunderground v.1.15,2015-05-27 19:38:00,
2015-05-27 14:44:00,79.8,65.6,30.19,SSE,156,0.0,0.0,62,0.00,,,0.00,Wunderground v.1.15,2015-05-27 19:44:00,
2015-05-27 14:50:00,79.4,66.2,30.18,SSE,152,0.0,0.0,64,0.00,,,0.00,Wunderground v.1.15,2015-05-27 19:50:00,
2015-05-27 14:56:00,79.8,66.5,30.18,NE,40,0.0,1.0,64,0.00,,,0.00,Wunderground v.1.15,2015-05-27 19:56:00,
2015-05-27 15:02:00,79.9,66.2,30.18,SE,129,0.0,0.0,63,0.00,,,0.00,Wunderground v.1.15,2015-05-27 20:02:00,
2015-05-27 15:07:00,79.6,66.8,30.18,SE,129,0.0,0.0,65,0.00,,,0.00,Wunderground v.1.15,2015-05-27 20:07:00,
2015-05-27 15:14:00,78.9,66.6,30.17,SE,129,0.0,0.0,66,0.00,,,0.00,Wunderground v.1.15,2015-05-27 20:14:00,
2015-05-27 15:19:00,78.6,67.2,30.17,SE,129,0.0,0.0,68,0.00,,,0.00,Wunderground v.1.15,2015-05-27 20:19:00,
2015-05-27 15:26:00,78.3,68.5,30.17,SE,130,0.0,0.0,72,0.00,,,0.00,Wunderground v.1.15,2015-05-27 20:26:00,
2015-05-27 15:32:00,78.3,68.1,30.17,SE,129,0.0,0.0,71,0.00,,,0.00,Wunderground v.1.15,2015-05-27 20:32:00,
2015-05-27 15:38:00,78.4,69.4,30.17,SE,129,0.0,0.0,74,0.00,,,0.00,Wunderground v.1.15,2015-05-27 20:38:00,
2015-05-27 15:44:00,78.4,69.0,30.16,SE,129,0.0,0.0,73,0.00,,,0.00,Wunderground v.1.15,2015-05-27 20:44:00,
2015-05-27 15:50:00,78.2,69.6,30.16,SE,129,0.0,0.0,75,0.00,,,0.00,Wunderground v.1.15,2015-05-27 20:50:00,
2015-05-27 15:56:00,78.6,68.0,30.16,NNE,12,0.0,1.0,70,0.00,,,0.00,Wunderground v.1.15,2015-05-27 20:56:00,
2015-05-27 16:02:00,79.0,68.4,30.15,North,8,0.0,0.0,70,0.00,,,0.00,Wunderground v.1.15,2015-05-27 21:02:00,
2015-05-27 16:08:00,79.4,67.5,30.15,NE,39,0.0,0.0,67,0.00,,,0.00,Wunderground v.1.15,2015-05-27 21:08:00,
2015-05-27 16:14:00,79.7,67.8,30.15,NE,38,0.0,0.0,67,0.00,,,0.00,Wunderground v.1.15,2015-05-27 21:14:00,
2015-05-27 16:20:00,80.1,67.7,30.15,NE,47,0.0,0.0,66,0.00,,,0.00,Wunderground v.1.15,2015-05-27 21:20:00,
2015-05-27 16:26:00,80.3,66.1,30.15,NNE,33,0.0,0.0,62,0.00,,,0.00,Wunderground v.1.15,2015-05-27 21:26:00,
2015-05-27 16:32:00,79.5,66.7,30.15,SSW,207,0.0,0.0,65,0.00,,,0.00,Wunderground v.1.15,2015-05-27 21:32:00,
2015-05-27 16:38:00,78.9,67.0,30.15,NE,37,0.0,0.0,67,0.00,,,0.00,Wunderground v.1.15,2015-05-27 21:38:00,
2015-05-27 16:44:00,77.9,67.7,30.15,North,1,0.0,0.0,71,0.00,,,0.00,Wunderground v.1.15,2015-05-27 21:44:00,
2015-05-27 16:50:00,76.6,67.3,30.16,SE,131,0.0,0.0,73,0.00,,,0.00,Wunderground v.1.15,2015-05-27 21:50:00,
2015-05-27 16:56:00,75.2,66.3,30.16,SE,129,0.0,0.0,74,0.00,,,0.00,Wunderground v.1.15,2015-05-27 21:56:00,
2015-05-27 17:02:00,74.4,66.7,30.16,ESE,121,0.0,0.0,77,0.00,,,0.00,Wunderground v.1.15,2015-05-27 22:02:00,
2015-05-27 17:08:00,73.8,66.9,30.16,ESE,107,0.0,0.0,79,0.00,,,0.00,Wunderground v.1.15,2015-05-27 22:08:00,
2015-05-27 17:13:00,73.3,66.8,30.16,East,83,0.0,0.0,80,0.00,,,0.00,Wunderground v.1.15,2015-05-27 22:13:00,
2015-05-27 17:20:00,73.0,67.2,30.17,East,85,0.0,0.0,82,0.00,,,0.00,Wunderground v.1.15,2015-05-27 22:20:00,
2015-05-27 17:26:00,72.9,67.1,30.16,East,84,0.0,0.0,82,0.00,,,0.00,Wunderground v.1.15,2015-05-27 22:26:00,
2015-05-27 17:32:00,72.8,67.0,30.17,South,191,0.0,0.0,82,0.00,,,0.00,Wunderground v.1.15,2015-05-27 22:32:00,
2015-05-27 17:38:00,72.8,67.0,30.17,SSW,207,0.0,0.0,82,0.00,,,0.00,Wunderground v.1.15,2015-05-27 22:38:00,
2015-05-27 17:44:00,72.7,66.9,30.17,SW,225,0.0,0.0,82,0.00,,,0.00,Wunderground v.1.15,2015-05-27 22:44:00,
2015-05-27 17:50:00,72.7,66.9,30.17,SW,225,0.0,0.0,82,0.00,,,0.00,Wunderground v.1.15,2015-05-27 22:50:00,
2015-05-27 17:56:00,72.6,66.8,30.17,SW,225,0.0,0.0,82,0.00,,,0.00,Wunderground v.1.15,2015-05-27 22:56:00,
2015-05-27 18:02:00,72.7,66.9,30.17,SW,225,0.0,0.0,82,0.00,,,0.00,Wunderground v.1.15,2015-05-27 23:02:00,
2015-05-27 18:08:00,72.7,67.2,30.17,SW,225,0.0,0.0,83,0.00,,,0.00,Wunderground v.1.15,2015-05-27 23:08:00,
2015-05-27 18:14:00,72.6,67.5,30.16,SW,225,0.0,0.0,84,0.00,,,0.00,Wunderground v.1.15,2015-05-27 23:14:00,